sensor_id;sensor_type;location;lat;lon;timestamp;pressure;altitude;pressure_sealevel;temperature;humidity
60061;BME280;45933;51.336;12.612;2022-07-05T00:01:47;100171.66;;;21.10;38.85
60061;BME280;45933;51.336;12.612;2022-07-05T00:04:12;100171.88;;;21.06;38.41
60061;BME280;45933;51.336;12.612;2022-07-05T00:06:38;100173.03;;;21.00;38.89
60061;BME280;45933;51.336;12.612;2022-07-05T00:09:23;100174.31;;;20.92;38.73
60061;BME280;45933;51.336;12.612;2022-07-05T00:11:48;100175.38;;;20.87;39.36
60061;BME280;45933;51.336;12.612;2022-07-05T00:14:14;100171.94;;;20.85;38.74
60061;BME280;45933;51.336;12.612;2022-07-05T00:16:39;100168.56;;;20.82;39.06
60061;BME280;45933;51.336;12.612;2022-07-05T00:19:05;100170.56;;;20.77;39.33
60061;BME280;45933;51.336;12.612;2022-07-05T00:21:30;100173.47;;;20.72;39.54
60061;BME280;45933;51.336;12.612;2022-07-05T00:23:55;100176.25;;;20.69;39.65
60061;BME280;45933;51.336;12.612;2022-07-05T00:26:21;100171.94;;;20.67;39.08
60061;BME280;45933;51.336;12.612;2022-07-05T00:28:46;100167.78;;;20.61;39.34
60061;BME280;45933;51.336;12.612;2022-07-05T00:31:11;100166.91;;;20.60;39.39
60061;BME280;45933;51.336;12.612;2022-07-05T00:33:37;100166.13;;;20.58;39.46
60061;BME280;45933;51.336;12.612;2022-07-05T00:36:02;100172.50;;;20.54;40.16
60061;BME280;45933;51.336;12.612;2022-07-05T00:38:28;100167.34;;;20.51;39.82
60061;BME280;45933;51.336;12.612;2022-07-05T00:40:53;100166.63;;;20.48;40.63
60061;BME280;45933;51.336;12.612;2022-07-05T00:43:18;100170.28;;;20.44;41.02
60061;BME280;45933;51.336;12.612;2022-07-05T00:45:44;100166.00;;;20.41;41.29
60061;BME280;45933;51.336;12.612;2022-07-05T00:48:09;100174.09;;;20.38;41.10
60061;BME280;45933;51.336;12.612;2022-07-05T00:50:34;100166.25;;;20.35;41.26
60061;BME280;45933;51.336;12.612;2022-07-05T00:53:00;100171.72;;;20.32;41.59
60061;BME280;45933;51.336;12.612;2022-07-05T00:55:25;100170.03;;;20.29;41.54
60061;BME280;45933;51.336;12.612;2022-07-05T00:57:51;100177.19;;;20.27;41.59
60061;BME280;45933;51.336;12.612;2022-07-05T01:00:17;100179.97;;;20.24;41.27
60061;BME280;45933;51.336;12.612;2022-07-05T01:02:43;100180.91;;;20.23;41.23
60061;BME280;45933;51.336;12.612;2022-07-05T01:05:09;100174.91;;;20.20;41.42
60061;BME280;45933;51.336;12.612;2022-07-05T01:07:34;100177.69;;;20.17;41.20
60061;BME280;45933;51.336;12.612;2022-07-05T01:10:00;100175.38;;;20.09;41.30
60061;BME280;45933;51.336;12.612;2022-07-05T01:12:25;100184.22;;;20.08;42.03
60061;BME280;45933;51.336;12.612;2022-07-05T01:14:51;100176.44;;;20.05;41.48
60061;BME280;45933;51.336;12.612;2022-07-05T01:17:17;100173.13;;;20.00;42.04
60061;BME280;45933;51.336;12.612;2022-07-05T01:19:43;100176.81;;;19.96;42.21
60061;BME280;45933;51.336;12.612;2022-07-05T01:22:14;100174.09;;;19.97;42.19
60061;BME280;45933;51.336;12.612;2022-07-05T01:24:41;100179.72;;;19.90;42.50
60061;BME280;45933;51.336;12.612;2022-07-05T01:27:07;100181.56;;;19.88;41.93
60061;BME280;45933;51.336;12.612;2022-07-05T01:29:32;100181.81;;;19.81;42.47
60061;BME280;45933;51.336;12.612;2022-07-05T01:31:58;100174.97;;;19.77;42.63
60061;BME280;45933;51.336;12.612;2022-07-05T01:34:23;100176.78;;;19.75;42.50
60061;BME280;45933;51.336;12.612;2022-07-05T01:36:48;100174.28;;;19.72;42.04
60061;BME280;45933;51.336;12.612;2022-07-05T01:39:15;100171.84;;;19.68;42.78
60061;BME280;45933;51.336;12.612;2022-07-05T01:41:40;100172.03;;;19.63;42.83
60061;BME280;45933;51.336;12.612;2022-07-05T01:44:06;100168.56;;;19.61;42.65
60061;BME280;45933;51.336;12.612;2022-07-05T01:46:32;100171.41;;;19.56;43.13
60061;BME280;45933;51.336;12.612;2022-07-05T01:49:04;100165.16;;;19.57;43.22
60061;BME280;45933;51.336;12.612;2022-07-05T01:51:34;100157.28;;;19.56;42.76
60061;BME280;45933;51.336;12.612;2022-07-05T01:54:01;100169.81;;;19.51;43.01
60061;BME280;45933;51.336;12.612;2022-07-05T01:56:26;100160.25;;;19.48;42.62
60061;BME280;45933;51.336;12.612;2022-07-05T01:58:53;100164.75;;;19.46;42.97
60061;BME280;45933;51.336;12.612;2022-07-05T02:01:32;100161.91;;;19.51;42.05
60061;BME280;45933;51.336;12.612;2022-07-05T02:03:58;100162.34;;;19.40;42.45
60061;BME280;45933;51.336;12.612;2022-07-05T02:06:24;100168.88;;;19.31;42.79
60061;BME280;45933;51.336;12.612;2022-07-05T02:08:49;100163.66;;;19.30;42.76
60061;BME280;45933;51.336;12.612;2022-07-05T02:11:15;100169.13;;;19.25;42.60
60061;BME280;45933;51.336;12.612;2022-07-05T02:13:40;100169.22;;;19.22;43.24
60061;BME280;45933;51.336;12.612;2022-07-05T02:16:05;100174.69;;;19.18;43.96
60061;BME280;45933;51.336;12.612;2022-07-05T02:18:31;100171.34;;;19.14;43.90
60061;BME280;45933;51.336;12.612;2022-07-05T02:20:56;100167.94;;;19.11;43.93
60061;BME280;45933;51.336;12.612;2022-07-05T02:23:21;100169.03;;;19.05;44.35
60061;BME280;45933;51.336;12.612;2022-07-05T02:25:47;100169.13;;;19.03;44.52
60061;BME280;45933;51.336;12.612;2022-07-05T02:28:12;100168.47;;;18.97;44.38
60061;BME280;45933;51.336;12.612;2022-07-05T02:30:38;100168.59;;;18.94;44.75
60061;BME280;45933;51.336;12.612;2022-07-05T02:33:04;100175.78;;;18.90;44.80
60061;BME280;45933;51.336;12.612;2022-07-05T02:35:29;100175.94;;;18.86;44.94
60061;BME280;45933;51.336;12.612;2022-07-05T02:37:55;100167.41;;;18.79;45.39
60061;BME280;45933;51.336;12.612;2022-07-05T02:40:20;100173.72;;;18.75;45.35
60061;BME280;45933;51.336;12.612;2022-07-05T02:42:45;100174.81;;;18.69;45.44
60061;BME280;45933;51.336;12.612;2022-07-05T02:45:11;100174.75;;;18.71;45.42
60061;BME280;45933;51.336;12.612;2022-07-05T02:47:36;100178.44;;;18.65;45.60
60061;BME280;45933;51.336;12.612;2022-07-05T02:50:09;100189.84;;;18.66;45.49
60061;BME280;45933;51.336;12.612;2022-07-05T02:52:35;100192.72;;;18.60;45.94
60061;BME280;45933;51.336;12.612;2022-07-05T02:55:01;100193.72;;;18.57;46.42
60061;BME280;45933;51.336;12.612;2022-07-05T02:57:27;100194.81;;;18.51;46.90
60061;BME280;45933;51.336;12.612;2022-07-05T02:59:53;100187.84;;;18.49;47.33
60061;BME280;45933;51.336;12.612;2022-07-05T03:02:19;100196.75;;;18.46;46.62
60061;BME280;45933;51.336;12.612;2022-07-05T03:04:45;100197.47;;;18.50;47.00
60061;BME280;45933;51.336;12.612;2022-07-05T03:07:10;100196.75;;;18.46;46.49
60061;BME280;45933;51.336;12.612;2022-07-05T03:09:35;100195.06;;;18.44;46.63
60061;BME280;45933;51.336;12.612;2022-07-05T03:12:01;100206.63;;;18.41;46.82
60061;BME280;45933;51.336;12.612;2022-07-05T03:14:26;100205.84;;;18.38;47.28
60061;BME280;45933;51.336;12.612;2022-07-05T03:16:52;100201.56;;;18.35;47.23
60061;BME280;45933;51.336;12.612;2022-07-05T03:19:17;100204.28;;;18.32;47.12
60061;BME280;45933;51.336;12.612;2022-07-05T03:21:42;100213.22;;;18.28;47.15
60061;BME280;45933;51.336;12.612;2022-07-05T03:24:09;100214.22;;;18.25;47.43
60061;BME280;45933;51.336;12.612;2022-07-05T03:26:34;100220.28;;;18.27;47.37
60061;BME280;45933;51.336;12.612;2022-07-05T03:29:00;100220.41;;;18.24;47.76
60061;BME280;45933;51.336;12.612;2022-07-05T03:31:25;100223.94;;;18.23;47.68
60061;BME280;45933;51.336;12.612;2022-07-05T03:33:51;100218.66;;;18.23;47.42
60061;BME280;45933;51.336;12.612;2022-07-05T03:36:16;100226.78;;;18.17;48.08
60061;BME280;45933;51.336;12.612;2022-07-05T03:38:41;100228.41;;;18.21;47.86
60061;BME280;45933;51.336;12.612;2022-07-05T03:41:07;100231.22;;;18.17;48.40
60061;BME280;45933;51.336;12.612;2022-07-05T03:43:33;100227.72;;;18.16;48.64
60061;BME280;45933;51.336;12.612;2022-07-05T03:45:58;100235.69;;;18.15;48.77
60061;BME280;45933;51.336;12.612;2022-07-05T03:48:24;100234.66;;;18.19;48.46
60061;BME280;45933;51.336;12.612;2022-07-05T03:50:49;100237.28;;;18.19;48.37
60061;BME280;45933;51.336;12.612;2022-07-05T03:53:14;100238.19;;;18.19;48.80
60061;BME280;45933;51.336;12.612;2022-07-05T03:55:40;100243.38;;;18.21;49.46
60061;BME280;45933;51.336;12.612;2022-07-05T03:58:06;100238.91;;;18.23;49.10
60061;BME280;45933;51.336;12.612;2022-07-05T04:00:31;100240.53;;;18.27;48.73
60061;BME280;45933;51.336;12.612;2022-07-05T04:02:57;100247.44;;;18.31;48.44
60061;BME280;45933;51.336;12.612;2022-07-05T04:05:22;100241.16;;;18.35;48.07
60061;BME280;45933;51.336;12.612;2022-07-05T04:07:52;100245.34;;;18.41;47.63
60061;BME280;45933;51.336;12.612;2022-07-05T04:10:19;100250.63;;;18.41;47.72
60061;BME280;45933;51.336;12.612;2022-07-05T04:12:45;100245.16;;;18.45;47.84
60061;BME280;45933;51.336;12.612;2022-07-05T04:15:10;100247.63;;;18.50;46.88
60061;BME280;45933;51.336;12.612;2022-07-05T04:17:46;100251.50;;;18.65;46.66
60061;BME280;45933;51.336;12.612;2022-07-05T04:20:11;100251.56;;;18.63;47.03
60061;BME280;45933;51.336;12.612;2022-07-05T04:22:36;100256.72;;;18.66;47.27
60061;BME280;45933;51.336;12.612;2022-07-05T04:25:02;100255.69;;;18.72;46.97
60061;BME280;45933;51.336;12.612;2022-07-05T04:27:53;100255.13;;;18.87;46.23
60061;BME280;45933;51.336;12.612;2022-07-05T04:30:21;100256.03;;;18.86;46.33
60061;BME280;45933;51.336;12.612;2022-07-05T04:32:47;100257.56;;;18.93;46.45
60061;BME280;45933;51.336;12.612;2022-07-05T04:35:13;100247.63;;;19.00;46.11
60061;BME280;45933;51.336;12.612;2022-07-05T04:37:38;100257.16;;;19.04;45.33
60061;BME280;45933;51.336;12.612;2022-07-05T04:40:05;100251.63;;;19.10;45.96
60061;BME280;45933;51.336;12.612;2022-07-05T04:42:31;100247.81;;;19.17;45.48
60061;BME280;45933;51.336;12.612;2022-07-05T04:44:56;100261.66;;;19.24;45.33
60061;BME280;45933;51.336;12.612;2022-07-05T04:47:22;100257.91;;;19.29;45.56
60061;BME280;45933;51.336;12.612;2022-07-05T04:49:47;100255.16;;;19.32;45.26
60061;BME280;45933;51.336;12.612;2022-07-05T04:52:13;100261.22;;;19.36;45.04
60061;BME280;45933;51.336;12.612;2022-07-05T04:54:38;100264.47;;;19.43;45.16
60061;BME280;45933;51.336;12.612;2022-07-05T04:57:04;100257.31;;;19.45;44.73
60061;BME280;45933;51.336;12.612;2022-07-05T04:59:29;100258.06;;;19.48;44.90
60061;BME280;45933;51.336;12.612;2022-07-05T05:01:55;100261.50;;;19.50;45.19
60061;BME280;45933;51.336;12.612;2022-07-05T05:04:20;100270.19;;;19.54;44.77
60061;BME280;45933;51.336;12.612;2022-07-05T05:06:47;100261.94;;;19.63;44.89
60061;BME280;45933;51.336;12.612;2022-07-05T05:09:12;100265.28;;;19.67;44.97
60061;BME280;45933;51.336;12.612;2022-07-05T05:11:38;100271.31;;;19.70;45.21
60061;BME280;45933;51.336;12.612;2022-07-05T05:14:03;100271.06;;;19.76;45.48
60061;BME280;45933;51.336;12.612;2022-07-05T05:16:28;100265.41;;;19.85;44.84
60061;BME280;45933;51.336;12.612;2022-07-05T05:18:54;100269.84;;;19.85;45.16
60061;BME280;45933;51.336;12.612;2022-07-05T05:21:19;100274.88;;;19.91;45.19
60061;BME280;45933;51.336;12.612;2022-07-05T05:23:44;100269.59;;;19.91;45.60
60061;BME280;45933;51.336;12.612;2022-07-05T05:26:10;100274.59;;;19.99;45.66
60061;BME280;45933;51.336;12.612;2022-07-05T05:28:35;100271.78;;;20.02;45.67
60061;BME280;45933;51.336;12.612;2022-07-05T05:31:01;100276.13;;;20.04;45.86
60061;BME280;45933;51.336;12.612;2022-07-05T05:33:26;100283.78;;;20.10;45.70
60061;BME280;45933;51.336;12.612;2022-07-05T05:35:51;100278.25;;;20.17;45.24
60061;BME280;45933;51.336;12.612;2022-07-05T05:38:17;100284.28;;;20.20;44.70
60061;BME280;45933;51.336;12.612;2022-07-05T05:40:42;100283.19;;;20.24;44.66
60061;BME280;45933;51.336;12.612;2022-07-05T05:43:10;100285.81;;;20.26;44.91
60061;BME280;45933;51.336;12.612;2022-07-05T05:45:35;100287.38;;;20.30;45.00
60061;BME280;45933;51.336;12.612;2022-07-05T05:48:00;100295.19;;;20.33;44.90
60061;BME280;45933;51.336;12.612;2022-07-05T05:50:32;100288.94;;;20.35;45.00
60061;BME280;45933;51.336;12.612;2022-07-05T05:52:57;100293.22;;;20.38;44.60
60061;BME280;45933;51.336;12.612;2022-07-05T05:55:25;100296.44;;;20.45;44.51
60061;BME280;45933;51.336;12.612;2022-07-05T05:57:52;100296.44;;;20.45;44.65
60061;BME280;45933;51.336;12.612;2022-07-05T06:00:18;100297.16;;;20.50;44.81
60061;BME280;45933;51.336;12.612;2022-07-05T06:02:45;100304.97;;;20.53;44.60
60061;BME280;45933;51.336;12.612;2022-07-05T06:05:11;100307.28;;;20.60;44.74
60061;BME280;45933;51.336;12.612;2022-07-05T06:07:48;100306.75;;;20.73;44.35
60061;BME280;45933;51.336;12.612;2022-07-05T06:10:33;100308.94;;;20.83;44.16
60061;BME280;45933;51.336;12.612;2022-07-05T06:13:00;100306.34;;;20.82;44.19
60061;BME280;45933;51.336;12.612;2022-07-05T06:15:27;100310.47;;;20.89;43.89
60061;BME280;45933;51.336;12.612;2022-07-05T06:17:53;100312.75;;;20.97;43.84
60061;BME280;45933;51.336;12.612;2022-07-05T06:20:25;100313.28;;;21.05;43.52
60061;BME280;45933;51.336;12.612;2022-07-05T06:22:51;100313.84;;;21.11;43.43
60061;BME280;45933;51.336;12.612;2022-07-05T06:25:17;100319.88;;;21.15;43.50
60061;BME280;45933;51.336;12.612;2022-07-05T06:27:45;100317.66;;;21.25;43.54
60061;BME280;45933;51.336;12.612;2022-07-05T06:30:13;100319.13;;;21.32;43.37
60061;BME280;45933;51.336;12.612;2022-07-05T06:32:39;100317.13;;;21.37;43.04
60061;BME280;45933;51.336;12.612;2022-07-05T06:35:05;100323.88;;;21.44;42.73
60061;BME280;45933;51.336;12.612;2022-07-05T06:37:45;100323.16;;;21.59;42.41
60061;BME280;45933;51.336;12.612;2022-07-05T06:40:12;100324.88;;;21.60;42.64
60061;BME280;45933;51.336;12.612;2022-07-05T06:42:38;100325.50;;;21.65;42.63
60061;BME280;45933;51.336;12.612;2022-07-05T06:45:06;100329.44;;;21.76;42.92
60061;BME280;45933;51.336;12.612;2022-07-05T06:47:32;100323.84;;;21.82;42.29
60061;BME280;45933;51.336;12.612;2022-07-05T06:49:58;100330.38;;;21.93;41.76
60061;BME280;45933;51.336;12.612;2022-07-05T06:52:24;100326.31;;;22.04;42.00
60061;BME280;45933;51.336;12.612;2022-07-05T06:54:49;100333.72;;;22.16;41.96
60061;BME280;45933;51.336;12.612;2022-07-05T06:57:19;100324.34;;;22.26;42.23
60061;BME280;45933;51.336;12.612;2022-07-05T06:59:44;100331.78;;;22.37;41.73
60061;BME280;45933;51.336;12.612;2022-07-05T07:02:10;100330.38;;;22.47;41.28
60061;BME280;45933;51.336;12.612;2022-07-05T07:04:35;100327.19;;;22.58;41.25
60061;BME280;45933;51.336;12.612;2022-07-05T07:07:00;100325.78;;;22.68;41.00
60061;BME280;45933;51.336;12.612;2022-07-05T07:09:26;100322.69;;;22.76;40.56
60061;BME280;45933;51.336;12.612;2022-07-05T07:11:51;100323.81;;;22.89;40.66
60061;BME280;45933;51.336;12.612;2022-07-05T07:14:16;100330.38;;;22.99;40.54
60061;BME280;45933;51.336;12.612;2022-07-05T07:16:42;100325.63;;;23.04;40.65
60061;BME280;45933;51.336;12.612;2022-07-05T07:19:08;100330.47;;;23.13;40.00
60061;BME280;45933;51.336;12.612;2022-07-05T07:21:33;100320.97;;;23.25;39.73
60061;BME280;45933;51.336;12.612;2022-07-05T07:23:59;100323.03;;;23.36;39.88
60061;BME280;45933;51.336;12.612;2022-07-05T07:26:25;100318.28;;;23.42;38.90
60061;BME280;45933;51.336;12.612;2022-07-05T07:28:50;100318.44;;;23.55;39.35
60061;BME280;45933;51.336;12.612;2022-07-05T07:31:15;100320.53;;;23.66;40.05
60061;BME280;45933;51.336;12.612;2022-07-05T07:33:41;100328.09;;;23.73;38.67
60061;BME280;45933;51.336;12.612;2022-07-05T07:36:06;100323.88;;;23.85;38.61
60061;BME280;45933;51.336;12.612;2022-07-05T07:38:32;100315.44;;;23.93;39.66
60061;BME280;45933;51.336;12.612;2022-07-05T07:40:57;100315.78;;;24.03;38.50
60061;BME280;45933;51.336;12.612;2022-07-05T07:43:23;100313.56;;;24.11;38.90
60061;BME280;45933;51.336;12.612;2022-07-05T07:45:48;100312.81;;;24.23;39.11
60061;BME280;45933;51.336;12.612;2022-07-05T07:48:14;100314.00;;;24.33;38.21
60061;BME280;45933;51.336;12.612;2022-07-05T07:50:39;100315.56;;;24.37;38.82
60061;BME280;45933;51.336;12.612;2022-07-05T07:53:04;100309.34;;;24.52;38.68
60061;BME280;45933;51.336;12.612;2022-07-05T07:55:30;100307.72;;;24.64;37.64
60061;BME280;45933;51.336;12.612;2022-07-05T07:57:55;100307.78;;;24.78;37.87
60061;BME280;45933;51.336;12.612;2022-07-05T08:00:20;100304.50;;;24.88;37.74
60061;BME280;45933;51.336;12.612;2022-07-05T08:02:46;100309.97;;;25.00;36.78
60061;BME280;45933;51.336;12.612;2022-07-05T08:05:11;100310.28;;;25.10;37.31
60061;BME280;45933;51.336;12.612;2022-07-05T08:07:37;100307.69;;;25.23;36.56
60061;BME280;45933;51.336;12.612;2022-07-05T08:10:06;100305.38;;;25.45;36.22
60061;BME280;45933;51.336;12.612;2022-07-05T08:12:32;100307.19;;;25.45;35.88
60061;BME280;45933;51.336;12.612;2022-07-05T08:14:57;100305.06;;;25.64;35.89
60061;BME280;45933;51.336;12.612;2022-07-05T08:17:23;100305.25;;;25.75;35.96
60061;BME280;45933;51.336;12.612;2022-07-05T08:19:48;100308.81;;;25.89;35.12
60061;BME280;45933;51.336;12.612;2022-07-05T08:22:32;100301.72;;;26.02;35.09
60061;BME280;45933;51.336;12.612;2022-07-05T08:24:58;100306.16;;;26.16;35.97
60061;BME280;45933;51.336;12.612;2022-07-05T08:27:24;100302.25;;;26.34;34.84
60061;BME280;45933;51.336;12.612;2022-07-05T08:29:49;100300.00;;;26.41;34.10
60061;BME280;45933;51.336;12.612;2022-07-05T08:32:15;100300.63;;;26.58;33.71
60061;BME280;45933;51.336;12.612;2022-07-05T08:34:41;100306.69;;;26.73;33.28
60061;BME280;45933;51.336;12.612;2022-07-05T08:37:07;100302.34;;;26.85;32.56
60061;BME280;45933;51.336;12.612;2022-07-05T08:39:32;100300.72;;;26.95;31.93
60061;BME280;45933;51.336;12.612;2022-07-05T08:41:58;100293.44;;;27.10;31.54
60061;BME280;45933;51.336;12.612;2022-07-05T08:44:27;100296.78;;;27.26;31.82
60061;BME280;45933;51.336;12.612;2022-07-05T08:46:55;100289.03;;;27.34;31.25
60061;BME280;45933;51.336;12.612;2022-07-05T08:49:25;100291.78;;;27.46;32.66
60061;BME280;45933;51.336;12.612;2022-07-05T08:51:51;100296.78;;;27.63;32.49
60061;BME280;45933;51.336;12.612;2022-07-05T08:54:17;100297.59;;;27.76;32.00
60061;BME280;45933;51.336;12.612;2022-07-05T08:56:46;100300.00;;;27.92;31.77
60061;BME280;45933;51.336;12.612;2022-07-05T08:59:12;100288.47;;;28.03;30.12
60061;BME280;45933;51.336;12.612;2022-07-05T09:01:39;100301.94;;;28.14;29.40
60061;BME280;45933;51.336;12.612;2022-07-05T09:04:06;100290.13;;;28.17;31.23
60061;BME280;45933;51.336;12.612;2022-07-05T09:06:36;100288.97;;;28.32;30.37
60061;BME280;45933;51.336;12.612;2022-07-05T09:09:03;100282.44;;;28.47;30.07
60061;BME280;45933;51.336;12.612;2022-07-05T09:11:35;100283.81;;;28.53;30.23
60061;BME280;45933;51.336;12.612;2022-07-05T09:14:03;100284.94;;;28.73;30.16
60061;BME280;45933;51.336;12.612;2022-07-05T09:16:30;100287.25;;;28.77;30.01
60061;BME280;45933;51.336;12.612;2022-07-05T09:19:03;100280.47;;;28.84;28.83
60061;BME280;45933;51.336;12.612;2022-07-05T09:21:29;100283.28;;;29.05;28.71
60061;BME280;45933;51.336;12.612;2022-07-05T09:23:59;100284.38;;;29.25;29.36
60061;BME280;45933;51.336;12.612;2022-07-05T09:26:47;100278.03;;;29.37;28.26
60061;BME280;45933;51.336;12.612;2022-07-05T09:29:16;100281.69;;;29.59;28.25
60061;BME280;45933;51.336;12.612;2022-07-05T09:31:43;100282.66;;;29.58;26.25
60061;BME280;45933;51.336;12.612;2022-07-05T09:34:12;100287.06;;;29.59;26.58
60061;BME280;45933;51.336;12.612;2022-07-05T09:37:02;100287.22;;;29.78;26.47
60061;BME280;45933;51.336;12.612;2022-07-05T09:42:12;100273.59;;;30.02;27.02
60061;BME280;45933;51.336;12.612;2022-07-05T09:44:42;100281.66;;;30.13;27.21
60061;BME280;45933;51.336;12.612;2022-07-05T09:47:09;100282.06;;;30.30;27.78
60061;BME280;45933;51.336;12.612;2022-07-05T09:49:38;100282.53;;;30.35;26.19
60061;BME280;45933;51.336;12.612;2022-07-05T09:52:06;100280.91;;;30.43;25.12
60061;BME280;45933;51.336;12.612;2022-07-05T09:54:32;100276.28;;;30.55;25.44
60061;BME280;45933;51.336;12.612;2022-07-05T09:56:57;100277.81;;;30.69;25.19
60061;BME280;45933;51.336;12.612;2022-07-05T09:59:23;100271.63;;;30.78;25.28
60061;BME280;45933;51.336;12.612;2022-07-05T10:01:48;100280.47;;;30.90;24.72
60061;BME280;45933;51.336;12.612;2022-07-05T10:04:14;100276.28;;;30.97;24.64
60061;BME280;45933;51.336;12.612;2022-07-05T10:06:40;100270.78;;;31.08;23.91
60061;BME280;45933;51.336;12.612;2022-07-05T10:09:05;100270.38;;;31.13;23.58
60061;BME280;45933;51.336;12.612;2022-07-05T10:11:31;100265.00;;;31.13;23.13
60061;BME280;45933;51.336;12.612;2022-07-05T10:13:58;100270.09;;;31.06;23.17
60061;BME280;45933;51.336;12.612;2022-07-05T10:16:24;100262.72;;;31.08;23.49
60061;BME280;45933;51.336;12.612;2022-07-05T10:18:53;100262.31;;;31.13;23.58
60061;BME280;45933;51.336;12.612;2022-07-05T10:21:20;100257.53;;;31.26;24.41
60061;BME280;45933;51.336;12.612;2022-07-05T10:23:50;100247.66;;;31.36;25.04
60061;BME280;45933;51.336;12.612;2022-07-05T10:26:20;100252.91;;;31.47;24.29
60061;BME280;45933;51.336;12.612;2022-07-05T10:28:49;100251.69;;;31.61;22.21
60061;BME280;45933;51.336;12.612;2022-07-05T10:31:15;100257.97;;;31.81;22.93
60061;BME280;45933;51.336;12.612;2022-07-05T10:33:41;100252.59;;;31.91;22.88
60061;BME280;45933;51.336;12.612;2022-07-05T10:36:13;100257.69;;;31.94;22.11
60061;BME280;45933;51.336;12.612;2022-07-05T10:38:42;100254.31;;;32.01;22.46
60061;BME280;45933;51.336;12.612;2022-07-05T10:41:10;100265.94;;;31.92;22.09
60061;BME280;45933;51.336;12.612;2022-07-05T10:43:36;100258.28;;;31.97;23.62
60061;BME280;45933;51.336;12.612;2022-07-05T10:46:01;100260.53;;;31.92;23.14
60061;BME280;45933;51.336;12.612;2022-07-05T10:48:28;100259.97;;;31.98;22.68
60061;BME280;45933;51.336;12.612;2022-07-05T10:51:01;100260.81;;;31.99;22.92
60061;BME280;45933;51.336;12.612;2022-07-05T11:06:29;100263.19;;;31.73;22.49
60061;BME280;45933;51.336;12.612;2022-07-05T11:13:59;100252.44;;;32.02;22.20
60061;BME280;45933;51.336;12.612;2022-07-05T11:16:35;100246.19;;;32.11;22.88
60061;BME280;45933;51.336;12.612;2022-07-05T11:19:14;100251.88;;;32.18;22.20
60061;BME280;45933;51.336;12.612;2022-07-05T11:22:05;100251.75;;;32.39;23.07
60061;BME280;45933;51.336;12.612;2022-07-05T11:24:37;100254.69;;;32.45;21.15
60061;BME280;45933;51.336;12.612;2022-07-05T11:27:11;100246.03;;;32.42;20.90
60061;BME280;45933;51.336;12.612;2022-07-05T11:29:41;100247.72;;;32.43;20.83
60061;BME280;45933;51.336;12.612;2022-07-05T11:32:08;100251.56;;;32.21;20.52
60061;BME280;45933;51.336;12.612;2022-07-05T11:34:35;100252.88;;;32.07;20.70
60061;BME280;45933;51.336;12.612;2022-07-05T11:39:43;100247.84;;;31.73;20.95
60061;BME280;45933;51.336;12.612;2022-07-05T11:42:08;100251.50;;;31.53;20.58
60061;BME280;45933;51.336;12.612;2022-07-05T11:44:37;100240.63;;;31.55;21.01
60061;BME280;45933;51.336;12.612;2022-07-05T11:47:05;100241.28;;;31.47;21.23
60061;BME280;45933;51.336;12.612;2022-07-05T11:49:32;100235.91;;;31.47;21.39
60061;BME280;45933;51.336;12.612;2022-07-05T11:52:01;100234.09;;;31.67;21.96
60061;BME280;45933;51.336;12.612;2022-07-05T11:54:29;100225.63;;;31.81;21.87
60061;BME280;45933;51.336;12.612;2022-07-05T11:56:55;100232.00;;;31.90;21.87
60061;BME280;45933;51.336;12.612;2022-07-05T11:59:22;100226.91;;;32.06;21.15
60061;BME280;45933;51.336;12.612;2022-07-05T12:01:48;100232.84;;;32.00;20.77
60061;BME280;45933;51.336;12.612;2022-07-05T12:04:29;100226.03;;;32.15;20.72
60061;BME280;45933;51.336;12.612;2022-07-05T12:06:56;100227.63;;;32.08;21.11
60061;BME280;45933;51.336;12.612;2022-07-05T12:09:23;100214.41;;;32.15;20.31
60061;BME280;45933;51.336;12.612;2022-07-05T12:11:53;100214.56;;;32.13;20.34
60061;BME280;45933;51.336;12.612;2022-07-05T12:14:46;100213.13;;;32.19;21.10
60061;BME280;45933;51.336;12.612;2022-07-05T12:17:18;100213.69;;;32.22;21.79
60061;BME280;45933;51.336;12.612;2022-07-05T12:19:47;100217.94;;;32.15;19.92
60061;BME280;45933;51.336;12.612;2022-07-05T12:22:12;100210.44;;;32.09;20.51
60061;BME280;45933;51.336;12.612;2022-07-05T12:24:39;100214.81;;;32.00;20.38
60061;BME280;45933;51.336;12.612;2022-07-05T12:27:05;100212.72;;;31.85;20.45
60061;BME280;45933;51.336;12.612;2022-07-05T12:29:31;100208.16;;;31.75;20.76
60061;BME280;45933;51.336;12.612;2022-07-05T12:32:04;100205.31;;;31.77;21.12
60061;BME280;45933;51.336;12.612;2022-07-05T12:34:33;100195.69;;;31.84;21.12
60061;BME280;45933;51.336;12.612;2022-07-05T12:36:59;100198.97;;;31.88;20.91
60061;BME280;45933;51.336;12.612;2022-07-05T12:39:24;100205.19;;;31.98;21.85
60061;BME280;45933;51.336;12.612;2022-07-05T12:41:50;100200.50;;;32.00;22.54
60061;BME280;45933;51.336;12.612;2022-07-05T12:44:19;100202.91;;;32.13;21.63
60061;BME280;45933;51.336;12.612;2022-07-05T12:46:45;100198.47;;;32.31;21.14
60061;BME280;45933;51.336;12.612;2022-07-05T12:49:11;100196.19;;;32.46;20.51
60061;BME280;45933;51.336;12.612;2022-07-05T12:51:39;100191.06;;;32.52;20.54
60061;BME280;45933;51.336;12.612;2022-07-05T12:54:18;100197.84;;;32.66;20.60
60061;BME280;45933;51.336;12.612;2022-07-05T12:57:03;100183.53;;;32.56;20.45
60061;BME280;45933;51.336;12.612;2022-07-05T13:00:17;100186.44;;;32.72;20.40
60061;BME280;45933;51.336;12.612;2022-07-05T13:02:45;100178.78;;;32.68;20.31
60061;BME280;45933;51.336;12.612;2022-07-05T13:05:22;100177.38;;;32.64;21.26